createdAt,value
2023-02-14T00:00:22.571Z,102772.53
2023-02-14T00:02:49.642Z,102830.22
2023-02-14T00:05:17.842Z,102822.50
2023-02-14T00:07:44.469Z,102830.28
2023-02-14T00:10:11.262Z,102838.09
2023-02-14T00:12:37.902Z,102831.22
2023-02-14T00:15:05.607Z,102651.38
2023-02-14T00:17:32.204Z,102836.41
2023-02-14T00:19:58.715Z,102832.09
2023-02-14T00:22:26.712Z,102832.97
2023-02-14T00:24:53.238Z,102833.00
2023-02-14T00:27:20.372Z,102795.16
2023-02-14T00:29:46.981Z,102834.00
2023-02-14T00:32:13.913Z,102831.34
2023-02-14T00:34:40.728Z,102828.81
2023-02-14T00:37:10.266Z,102792.66
2023-02-14T00:39:38.385Z,102820.19
2023-02-14T00:42:06.003Z,102821.06
2023-02-14T00:44:32.849Z,102821.94
2023-02-14T00:46:59.700Z,102811.59
2023-02-14T00:49:26.277Z,102812.50
2023-02-14T00:51:52.969Z,102813.34
2023-02-14T00:54:19.878Z,102806.44
2023-02-14T00:56:47.851Z,102789.22
2023-02-14T00:59:14.463Z,102761.69
2023-02-14T01:01:41.770Z,102803.00
2023-02-14T01:04:09.632Z,102803.00
2023-02-14T01:06:36.788Z,102802.94
2023-02-14T01:09:03.838Z,102802.94
2023-02-14T01:11:32.756Z,102790.13
2023-02-14T01:14:01.526Z,102812.53
2023-02-14T01:16:29.330Z,102815.16
2023-02-14T01:18:58.372Z,102816.06
2023-02-14T01:21:26.965Z,102810.88
2023-02-14T01:23:58.027Z,102809.16
2023-02-14T01:26:26.465Z,102725.69
2023-02-14T01:28:53.431Z,102806.72
2023-02-14T01:31:23.357Z,102804.13
2023-02-14T01:33:50.939Z,102819.72
2023-02-14T01:36:20.273Z,102823.19
2023-02-14T01:38:47.292Z,102813.66
2023-02-14T01:41:14.146Z,102819.72
2023-02-14T01:43:56.913Z,102795.63
2023-02-14T01:46:26.622Z,102810.25
2023-02-14T01:48:56.538Z,102811.94
2023-02-14T01:51:24.005Z,102813.69
2023-02-14T01:53:52.171Z,102809.31
2023-02-14T01:56:27.391Z,102809.34
2023-02-14T01:58:59.052Z,102750.81
2023-02-14T02:01:28.181Z,102799.91
2023-02-14T02:03:57.387Z,102799.06
2023-02-14T02:06:29.305Z,102747.44
2023-02-14T02:09:00.492Z,102796.50
2023-02-14T02:11:29.058Z,102789.63
2023-02-14T02:13:55.882Z,102793.09
2023-02-14T02:16:42.189Z,102796.50
2023-02-14T02:19:47.195Z,102786.91
2023-02-14T02:22:37.366Z,102790.44
2023-02-14T02:25:18.864Z,102787.84
2023-02-14T02:28:16.237Z,102792.13
2023-02-14T02:31:18.293Z,102787.91
2023-02-14T02:34:06.857Z,102722.47
2023-02-14T02:36:58.650Z,102791.41
2023-02-14T02:39:40.290Z,102787.06
2023-02-14T02:42:17.565Z,102787.13
2023-02-14T02:44:50.826Z,102788.88
2023-02-14T02:47:26.576Z,102775.09
2023-02-14T02:50:02.629Z,102788.00
2023-02-14T02:52:39.712Z,102782.00
2023-02-14T02:55:11.679Z,102781.09
2023-02-14T02:57:42.457Z,102783.69
2023-02-14T03:00:15.155Z,102789.75
2023-02-14T03:02:46.658Z,102733.75
2023-02-14T03:05:13.498Z,102758.72
2023-02-14T03:07:41.430Z,102780.28
2023-02-14T03:10:13.476Z,102787.19
2023-02-14T03:13:05.440Z,102778.56
2023-02-14T03:15:50.832Z,102776.84
2023-02-14T03:18:32.195Z,102778.56
2023-02-14T03:21:10.082Z,102775.97
2023-02-14T03:23:48.719Z,102776.00
2023-02-14T03:26:18.391Z,102780.34
2023-02-14T03:28:52.958Z,102786.41
2023-02-14T03:31:29.171Z,102780.38
2023-02-14T03:34:00.981Z,102778.63
2023-02-14T03:36:31.391Z,102789.00
2023-02-14T03:39:05.797Z,102790.72
2023-02-14T03:41:38.186Z,102789.88
2023-02-14T03:44:08.044Z,102705.44
2023-02-14T03:46:39.594Z,102783.84
2023-02-14T03:49:11.438Z,102783.88
2023-02-14T03:51:39.144Z,102790.75
2023-02-14T03:54:10.443Z,102754.56
2023-02-14T03:56:41.500Z,102791.63
2023-02-14T03:59:13.573Z,102771.81
2023-02-14T04:01:45.059Z,102785.59
2023-02-14T04:04:16.656Z,102783.88
2023-02-14T04:06:43.856Z,102789.09
2023-02-14T04:09:12.189Z,102779.59
2023-02-14T04:11:39.101Z,102766.69
2023-02-14T04:14:06.050Z,102724.47
2023-02-14T04:16:33.474Z,102779.63
2023-02-14T04:19:00.176Z,102777.88
2023-02-14T04:21:27.156Z,102740.84
2023-02-14T04:23:53.718Z,102783.06
2023-02-14T04:26:21.705Z,102783.97
2023-02-14T04:28:48.263Z,102629.75
2023-02-14T04:31:15.272Z,102783.09
2023-02-14T04:33:41.963Z,102774.47
2023-02-14T04:36:08.982Z,102780.50
2023-02-14T04:38:35.517Z,102764.06
2023-02-14T04:41:02.579Z,102767.53
2023-02-14T04:43:30.673Z,102764.94
2023-02-14T04:45:57.254Z,102720.09
2023-02-14T04:48:23.840Z,102766.69
2023-02-14T04:50:53.759Z,102764.94
2023-02-14T04:53:20.507Z,102762.34
2023-02-14T04:55:48.801Z,102763.22
2023-02-14T04:58:16.153Z,102731.38
2023-02-14T05:00:44.051Z,102757.22
2023-02-14T05:03:10.693Z,102752.88
2023-02-14T05:05:37.637Z,102733.94
2023-02-14T05:08:04.307Z,102752.88
2023-02-14T05:10:30.926Z,102682.25
2023-02-14T05:12:57.452Z,102748.59
2023-02-14T05:15:23.974Z,102750.31
2023-02-14T05:17:52.123Z,102755.50
2023-02-14T05:20:18.844Z,102707.25
2023-02-14T05:22:45.411Z,102714.16
2023-02-14T05:25:11.942Z,102744.31
2023-02-14T05:27:38.777Z,102668.50
2023-02-14T05:30:06.688Z,102736.56
2023-02-14T05:32:33.346Z,102744.31
2023-02-14T05:35:01.477Z,102735.69
2023-02-14T05:37:28.875Z,102740.88
2023-02-14T05:39:55.720Z,102746.91
2023-02-14T05:42:22.343Z,102744.31
2023-02-14T05:44:49.044Z,102700.38
2023-02-14T05:47:15.586Z,102743.47
2023-02-14T05:49:42.165Z,102733.13
2023-02-14T05:52:10.107Z,102745.19
2023-02-14T05:54:36.736Z,102750.34
2023-02-14T05:57:03.637Z,102721.06
2023-02-14T05:59:30.168Z,102749.53
2023-02-14T06:01:57.012Z,102746.94
2023-02-14T06:04:24.014Z,102743.47
2023-02-14T06:06:50.568Z,102715.91
2023-02-14T06:09:18.568Z,102727.97
2023-02-14T06:11:45.149Z,102747.81
2023-02-14T06:14:11.713Z,102744.34
2023-02-14T06:16:38.389Z,102742.59
2023-02-14T06:19:05.028Z,102736.59
2023-02-14T06:21:31.626Z,102746.09
2023-02-14T06:23:59.136Z,102750.41
2023-02-14T06:26:27.380Z,102755.56
2023-02-14T06:28:53.983Z,102743.47
2023-02-14T06:31:20.706Z,102687.47
2023-02-14T06:33:47.384Z,102753.00
2023-02-14T06:36:14.060Z,102757.31
2023-02-14T06:38:40.868Z,102754.72
2023-02-14T06:41:09.345Z,102752.97
2023-02-14T06:43:38.860Z,102752.13
2023-02-14T06:46:05.690Z,102749.53
2023-02-14T06:48:32.554Z,102724.56
2023-02-14T06:51:00.852Z,102751.25
2023-02-14T06:53:27.791Z,102685.78
2023-02-14T06:55:54.598Z,102756.47
2023-02-14T06:58:21.754Z,102755.56
2023-02-14T07:00:49.896Z,102754.72
2023-02-14T07:03:16.633Z,102754.72
2023-02-14T07:05:43.518Z,102759.03
2023-02-14T07:08:11.086Z,102761.63
2023-02-14T07:10:37.798Z,102760.72
2023-02-14T07:13:04.779Z,102766.78
2023-02-14T07:15:31.564Z,102761.63
2023-02-14T07:17:59.688Z,102760.72
2023-02-14T07:20:26.368Z,102760.72
2023-02-14T07:22:52.898Z,102749.47
2023-02-14T07:25:19.847Z,102727.97
2023-02-14T07:27:46.861Z,102755.50
2023-02-14T07:30:14.094Z,102755.47
2023-02-14T07:32:41.381Z,102746.00
2023-02-14T07:35:10.088Z,102751.16
2023-02-14T07:37:36.779Z,102745.13
2023-02-14T07:40:05.333Z,102744.25
2023-02-14T07:42:32.916Z,102742.53
2023-02-14T07:45:04.848Z,102739.94
2023-02-14T07:47:33.530Z,102744.19
2023-02-14T07:50:00.221Z,102745.06
2023-02-14T07:52:28.156Z,102737.25
2023-02-14T07:54:54.672Z,102743.31
2023-02-14T07:57:21.390Z,102740.66
2023-02-14T07:59:47.908Z,102695.00
2023-02-14T08:02:14.526Z,102741.47
2023-02-14T08:04:41.195Z,102744.03
2023-02-14T08:07:07.861Z,102748.31
2023-02-14T08:09:35.786Z,102706.06
2023-02-14T08:12:02.404Z,102729.28
2023-02-14T08:14:29.432Z,102743.84
2023-02-14T08:16:56.444Z,102750.66
2023-02-14T08:19:22.993Z,102741.09
2023-02-14T08:21:49.617Z,102754.81
2023-02-14T08:24:16.190Z,102681.50
2023-02-14T08:26:44.222Z,102706.47
2023-02-14T08:29:10.743Z,102600.59
2023-02-14T08:31:37.430Z,102743.22
2023-02-14T08:34:04.551Z,102740.53
2023-02-14T08:36:31.894Z,102743.00
2023-02-14T08:38:58.814Z,102725.75
2023-02-14T08:41:25.533Z,102737.69
2023-02-14T08:43:53.556Z,102740.13
2023-02-14T08:46:20.408Z,102709.97
2023-02-14T08:48:47.035Z,102744.25
2023-02-14T08:51:16.682Z,102733.84
2023-02-14T08:53:44.107Z,102738.88
2023-02-14T08:56:15.381Z,102750.88
2023-02-14T08:58:42.239Z,102724.94
2023-02-14T09:01:11.458Z,102750.63
2023-02-14T09:03:38.666Z,102747.88
2023-02-14T09:06:06.628Z,102745.13
2023-02-14T09:08:33.498Z,102739.66
2023-02-14T09:11:00.621Z,102742.06
2023-02-14T09:13:27.445Z,102746.16
2023-02-14T09:15:55.487Z,102737.31
2023-02-14T09:18:23.579Z,102694.16
2023-02-14T09:20:50.102Z,102738.41
2023-02-14T09:23:17.140Z,102739.72
2023-02-14T09:25:43.952Z,102708.66
2023-02-14T09:28:10.851Z,102737.28
2023-02-14T09:30:37.403Z,102736.19
2023-02-14T09:33:04.089Z,102742.78
2023-02-14T09:35:32.458Z,102736.25
2023-02-14T09:37:59.210Z,102733.22
2023-02-14T09:40:25.921Z,102701.78
2023-02-14T09:43:02.293Z,102708.88
2023-02-14T09:45:31.202Z,102722.97
2023-02-14T09:48:02.312Z,102727.69
2023-02-14T09:50:33.843Z,102724.56
2023-02-14T09:53:05.884Z,102716.47
2023-02-14T09:55:39.680Z,102719.28
2023-02-14T09:58:15.154Z,102706.31
2023-02-14T10:00:46.647Z,102710.31
2023-02-14T10:03:41.562Z,102709.56
2023-02-14T10:06:26.190Z,102710.03
2023-02-14T10:09:02.679Z,102707.59
2023-02-14T10:11:29.985Z,102679.63
2023-02-14T10:14:02.111Z,102684.13
2023-02-14T10:16:33.375Z,102702.47
2023-02-14T10:19:03.827Z,102704.22
2023-02-14T10:21:39.875Z,102695.63
2023-02-14T10:24:13.797Z,102702.25
2023-02-14T10:26:40.787Z,102691.41
2023-02-14T10:29:12.758Z,102691.72
2023-02-14T10:31:44.804Z,102687.94
2023-02-14T10:34:20.604Z,102685.69
2023-02-14T10:37:00.500Z,102650.75
2023-02-14T10:39:42.970Z,102631.97
2023-02-14T10:42:21.720Z,102675.56
2023-02-14T10:44:56.194Z,102674.81
2023-02-14T10:47:41.455Z,102668.38
2023-02-14T10:50:16.664Z,102670.59
2023-02-14T10:52:52.839Z,102666.50
2023-02-14T10:55:32.397Z,102659.13
2023-02-14T10:58:04.092Z,102663.88
2023-02-14T11:00:34.136Z,102663.19
2023-02-14T11:03:06.014Z,102660.81
2023-02-14T11:05:35.542Z,102656.78
2023-02-14T11:08:14.269Z,102630.88
2023-02-14T11:10:40.994Z,102657.78
2023-02-14T11:13:27.654Z,102644.06
2023-02-14T11:15:59.670Z,102648.06
2023-02-14T11:18:27.981Z,102643.47
2023-02-14T11:21:02.663Z,102637.41
2023-02-14T11:23:34.947Z,102630.78
2023-02-14T11:26:02.983Z,102619.25
2023-02-14T11:28:29.778Z,102622.19
2023-02-14T11:30:56.595Z,102618.41
2023-02-14T11:33:31.560Z,102618.75
2023-02-14T11:35:59.608Z,102615.97
2023-02-14T11:38:29.706Z,102619.78
2023-02-14T11:40:59.361Z,102620.06
2023-02-14T11:43:34.448Z,102617.28
2023-02-14T11:46:08.000Z,102601.22
2023-02-14T11:48:38.684Z,102603.22
2023-02-14T11:51:08.070Z,102607.38
2023-02-14T11:53:44.478Z,102589.28
2023-02-14T11:56:14.065Z,102595.00
2023-02-14T11:58:47.800Z,102589.56
2023-02-14T12:01:23.281Z,102555.91
2023-02-14T12:03:52.285Z,102582.94
2023-02-14T12:06:24.783Z,102576.91
2023-02-14T12:08:51.687Z,102532.50
2023-02-14T12:11:21.905Z,102551.56
2023-02-14T12:13:53.146Z,102570.88
2023-02-14T12:16:24.130Z,102558.78
2023-02-14T12:18:56.113Z,102558.94
2023-02-14T12:21:47.204Z,102560.19
2023-02-14T12:24:26.038Z,102543.50
2023-02-14T12:27:02.174Z,102521.78
2023-02-14T12:29:35.211Z,102545.63
2023-02-14T12:32:11.818Z,102493.16
2023-02-14T12:34:38.521Z,102536.66
2023-02-14T12:37:17.172Z,102530.53
2023-02-14T12:39:58.971Z,102528.16
2023-02-14T12:42:41.987Z,102537.75
2023-02-14T12:45:19.839Z,102536.34
2023-02-14T12:47:58.231Z,102537.22
2023-02-14T12:50:43.088Z,102517.41
2023-02-14T12:53:45.416Z,102499.28
2023-02-14T12:56:21.042Z,102521.22
2023-02-14T12:58:58.503Z,102515.97
2023-02-14T13:01:38.754Z,102507.84
2023-02-14T13:04:56.526Z,102503.31
2023-02-14T13:07:36.232Z,102506.06
2023-02-14T13:10:13.819Z,102494.53
2023-02-14T13:12:49.211Z,102488.09
2023-02-14T13:15:27.393Z,102485.94
2023-02-14T13:17:58.666Z,102468.66
2023-02-14T13:20:39.544Z,102474.75
2023-02-14T13:23:13.249Z,102471.94
2023-02-14T13:25:42.326Z,102468.25
2023-02-14T13:28:13.565Z,102467.03
2023-02-14T13:30:41.610Z,102430.28
2023-02-14T13:33:14.401Z,102450.28
2023-02-14T13:35:41.746Z,102455.91
2023-02-14T13:38:15.849Z,102454.25
2023-02-14T13:40:43.009Z,102451.69
2023-02-14T13:43:09.558Z,102456.88
2023-02-14T13:45:55.653Z,102454.06
2023-02-14T13:48:25.335Z,102462.59
2023-02-14T13:50:55.018Z,102444.84
2023-02-14T13:53:37.301Z,102440.34
2023-02-14T13:56:06.104Z,102441.72
2023-02-14T13:58:33.356Z,102435.31
2023-02-14T14:01:29.169Z,102433.22
2023-02-14T14:03:58.076Z,102427.38
2023-02-14T14:06:24.636Z,102427.91
2023-02-14T14:08:53.840Z,102422.22
2023-02-14T14:11:57.160Z,102426.50
2023-02-14T14:14:35.673Z,102422.03
2023-02-14T14:17:18.553Z,102420.25
2023-02-14T14:19:47.123Z,102409.16
2023-02-14T14:22:14.997Z,102413.91
2023-02-14T14:24:52.849Z,102405.88
2023-02-14T14:27:22.669Z,102412.22
2023-02-14T14:29:51.882Z,102407.31
2023-02-14T14:32:24.865Z,102410.34
2023-02-14T14:34:54.333Z,102401.88
2023-02-14T14:37:23.081Z,102395.63
2023-02-14T14:39:51.513Z,102381.47
2023-02-14T14:42:19.002Z,102402.13
2023-02-14T14:44:48.236Z,102399.78
2023-02-14T14:47:17.332Z,102401.06
2023-02-14T14:49:45.879Z,102359.06
2023-02-14T14:52:32.907Z,102401.88
2023-02-14T14:55:01.968Z,102397.47
2023-02-14T14:57:28.978Z,102396.81
2023-02-14T15:00:21.232Z,102399.94
2023-02-14T15:02:59.363Z,102391.09
2023-02-14T15:05:29.755Z,102390.88
2023-02-14T15:07:56.358Z,102397.41
2023-02-14T15:10:24.717Z,102393.78
2023-02-14T15:12:53.124Z,102391.91
2023-02-14T15:15:19.740Z,102392.56
2023-02-14T15:17:46.875Z,102389.72
2023-02-14T15:20:18.811Z,102392.13
2023-02-14T15:22:49.840Z,102385.22
2023-02-14T15:25:19.840Z,102383.53
2023-02-14T15:27:47.492Z,102383.81
2023-02-14T15:30:23.466Z,102379.47
2023-02-14T15:32:51.855Z,102381.47
2023-02-14T15:35:23.649Z,102380.03
2023-02-14T15:37:51.994Z,102378.72
2023-02-14T15:40:22.981Z,102379.53
2023-02-14T15:42:52.056Z,102381.50
2023-02-14T15:45:22.872Z,102356.75
2023-02-14T15:47:52.031Z,102386.19
2023-02-14T15:50:21.113Z,102380.91
2023-02-14T15:52:48.687Z,102379.88
2023-02-14T15:55:19.033Z,102386.00
2023-02-14T15:57:52.329Z,102382.09
2023-02-14T16:00:20.629Z,102367.78
2023-02-14T16:02:52.975Z,102369.13
2023-02-14T16:05:22.201Z,102382.91
2023-02-14T16:08:00.090Z,102386.31
2023-02-14T16:10:30.382Z,102384.38
2023-02-14T16:13:00.570Z,102380.66
2023-02-14T16:15:29.266Z,102385.34
2023-02-14T16:17:55.946Z,102384.38
2023-02-14T16:20:28.038Z,102386.69
2023-02-14T16:23:17.309Z,102383.91
2023-02-14T16:25:46.265Z,102379.78
2023-02-14T16:28:13.981Z,102347.31
2023-02-14T16:30:42.473Z,102388.63
2023-02-14T16:33:14.472Z,102390.84
2023-02-14T16:35:41.133Z,102392.38
2023-02-14T16:38:13.354Z,102399.50
2023-02-14T16:40:43.096Z,102392.72
2023-02-14T16:43:13.980Z,102398.16
2023-02-14T16:45:41.130Z,102400.53
2023-02-14T16:48:09.449Z,102368.91
2023-02-14T16:50:37.754Z,102391.47
2023-02-14T16:53:04.766Z,102416.91
2023-02-14T16:55:31.751Z,102412.44
2023-02-14T16:58:00.772Z,102414.44
2023-02-14T17:00:28.708Z,102419.31
2023-02-14T17:02:55.821Z,102417.34
2023-02-14T17:05:22.430Z,102429.38
2023-02-14T17:07:48.982Z,102420.84
2023-02-14T17:10:19.228Z,102413.91
2023-02-14T17:12:48.284Z,102428.91
2023-02-14T17:15:17.819Z,102425.78
2023-02-14T17:17:47.792Z,102423.84
2023-02-14T17:20:14.509Z,102422.50
2023-02-14T17:22:41.317Z,102415.03
2023-02-14T17:25:09.110Z,102422.41
2023-02-14T17:27:35.621Z,102429.81
2023-02-14T17:30:02.294Z,102426.03
2023-02-14T17:32:28.948Z,102433.19
2023-02-14T17:34:56.951Z,102433.47
2023-02-14T17:37:23.465Z,102431.09
2023-02-14T17:39:50.052Z,102437.25
2023-02-14T17:42:16.585Z,102428.06
2023-02-14T17:44:43.138Z,102440.50
2023-02-14T17:47:09.693Z,102440.78
2023-02-14T17:49:36.266Z,102444.69
2023-02-14T17:52:04.470Z,102432.72
2023-02-14T17:54:31.156Z,102427.00
2023-02-14T17:56:57.695Z,102435.81
2023-02-14T17:59:24.361Z,102439.50
2023-02-14T18:04:17.526Z,102448.63
2023-02-14T18:06:44.247Z,102442.66
2023-02-14T18:09:12.140Z,102441.13
2023-02-14T18:11:40.568Z,102431.25
2023-02-14T18:14:07.072Z,102442.47
2023-02-14T18:16:34.123Z,102443.31
2023-02-14T18:19:02.811Z,102438.22
2023-02-14T18:21:32.996Z,102444.72
2023-02-14T18:23:59.698Z,102398.78
2023-02-14T18:26:27.615Z,102441.34
2023-02-14T18:28:54.218Z,102440.69
2023-02-14T18:31:21.625Z,102436.81
2023-02-14T18:33:50.165Z,102414.84
2023-02-14T18:36:19.092Z,102428.44
2023-02-14T18:38:47.680Z,102438.34
2023-02-14T18:41:16.404Z,102422.78
2023-02-14T18:43:44.615Z,102436.97
2023-02-14T18:46:13.368Z,102435.16
2023-02-14T18:48:40.526Z,102428.06
2023-02-14T18:51:07.841Z,102432.78
2023-02-14T18:53:34.812Z,102436.53
2023-02-14T18:56:04.405Z,102440.06
2023-02-14T18:58:31.009Z,102442.03
2023-02-14T19:00:59.258Z,102435.31
2023-02-14T19:03:26.030Z,102439.78
2023-02-14T19:05:52.537Z,102434.72
2023-02-14T19:08:19.161Z,102431.44
2023-02-14T19:10:45.666Z,102434.13
2023-02-14T19:13:12.261Z,102430.09
2023-02-14T19:15:38.781Z,102430.19
2023-02-14T19:18:07.344Z,102425.06
2023-02-14T19:20:33.885Z,102419.91
2023-02-14T19:23:00.797Z,102420.94
2023-02-14T19:25:27.356Z,102415.06
2023-02-14T19:27:54.549Z,102422.16
2023-02-14T19:30:21.252Z,102417.13
2023-02-14T19:32:48.047Z,102395.91
2023-02-14T19:35:16.210Z,102400.28
2023-02-14T19:37:42.837Z,102408.03
2023-02-14T19:40:10.230Z,102393.44
2023-02-14T19:42:36.888Z,102401.41
2023-02-14T19:45:04.628Z,102391.94
2023-02-14T19:47:46.192Z,102394.00
2023-02-14T19:50:13.962Z,102392.56
2023-02-14T19:52:41.818Z,102387.41
2023-02-14T19:55:15.840Z,102390.16
2023-02-14T19:57:44.513Z,102390.41
2023-02-14T20:00:12.575Z,102380.97
2023-02-14T20:02:39.775Z,102377.63
2023-02-14T20:05:06.793Z,102348.75
2023-02-14T20:07:33.476Z,102375.38
2023-02-14T20:10:01.398Z,102380.84
2023-02-14T20:12:28.189Z,102382.69
2023-02-14T20:14:54.860Z,102353.63
2023-02-14T20:17:21.535Z,102376.84
2023-02-14T20:19:48.134Z,102378.00
2023-02-14T20:22:14.717Z,102375.38
2023-02-14T20:24:41.439Z,102373.84
2023-02-14T20:27:09.606Z,102355.16
2023-02-14T20:29:38.006Z,102372.53
2023-02-14T20:32:05.395Z,102369.19
2023-02-14T20:34:31.989Z,102364.25
2023-02-14T20:36:58.853Z,102362.53
2023-02-14T20:39:29.552Z,102350.56
2023-02-14T20:41:56.183Z,102365.41
2023-02-14T20:44:24.272Z,102356.13
2023-02-14T20:46:52.444Z,102366.72
2023-02-14T20:49:20.069Z,102359.94
2023-02-14T20:51:47.493Z,102348.84
2023-02-14T20:54:14.211Z,102360.16
2023-02-14T20:56:40.834Z,102359.31
2023-02-14T20:59:07.432Z,102356.03
2023-02-14T21:01:36.217Z,102360.47
2023-02-14T21:04:03.072Z,102372.47
2023-02-14T21:06:31.568Z,102364.00
2023-02-14T21:08:58.791Z,102367.53
2023-02-14T21:11:26.542Z,102365.78
2023-02-14T21:13:55.535Z,102363.97
2023-02-14T21:16:22.427Z,102366.72
2023-02-14T21:18:52.673Z,102363.34
2023-02-14T21:21:22.043Z,102366.97
2023-02-14T21:23:49.379Z,102361.81
2023-02-14T21:26:16.160Z,102363.63
2023-02-14T21:28:42.715Z,102362.06
2023-02-14T21:31:13.197Z,102241.44
2023-02-14T21:33:40.107Z,102356.16
2023-02-14T21:36:10.010Z,102358.88
2023-02-14T21:38:37.043Z,102361.72
2023-02-14T21:41:05.563Z,102367.81
2023-02-14T21:43:34.576Z,102366.19
2023-02-14T21:46:03.412Z,102361.63
2023-02-14T21:48:30.250Z,102342.69
2023-02-14T21:50:56.857Z,102365.31
2023-02-14T21:53:25.117Z,102362.88
2023-02-14T21:55:51.651Z,102361.19
2023-02-14T21:58:18.287Z,102361.28
2023-02-14T22:00:44.966Z,102360.31
2023-02-14T22:03:12.384Z,102359.53
2023-02-14T22:05:39.744Z,102352.75
2023-02-14T22:08:06.296Z,102355.44
2023-02-14T22:10:34.196Z,102339.19
2023-02-14T22:13:00.771Z,102346.88
2023-02-14T22:15:27.288Z,102346.91
2023-02-14T22:17:53.844Z,102355.59
2023-02-14T22:20:20.425Z,102349.66
2023-02-14T22:22:47.033Z,102341.88
2023-02-14T22:25:13.666Z,102347.00
2023-02-14T22:27:41.687Z,102346.19
2023-02-14T22:30:08.805Z,102340.13
2023-02-14T22:32:35.433Z,102332.47
2023-02-14T22:35:01.987Z,102336.03
2023-02-14T22:37:28.602Z,102331.78
2023-02-14T22:39:55.145Z,102336.97
2023-02-14T22:42:21.788Z,102335.25
2023-02-14T22:44:49.774Z,102332.66
2023-02-14T22:47:16.392Z,102323.22
2023-02-14T22:49:42.952Z,102330.16
2023-02-14T22:52:09.496Z,102325.06
2023-02-14T22:54:36.042Z,102331.97
2023-02-14T22:57:02.963Z,102324.19
2023-02-14T22:59:30.514Z,102319.09
2023-02-14T23:01:58.840Z,102332.94
2023-02-14T23:04:26.572Z,102326.03
2023-02-14T23:06:53.673Z,102321.69
2023-02-14T23:09:20.665Z,102320.06
2023-02-14T23:11:49.045Z,102325.16
2023-02-14T23:14:18.159Z,102323.34
2023-02-14T23:16:45.792Z,102300.22
2023-02-14T23:19:15.529Z,102316.53
2023-02-14T23:21:42.151Z,102314.00
2023-02-14T23:24:08.653Z,102326.22
2023-02-14T23:26:37.298Z,102314.97
2023-02-14T23:29:03.913Z,102315.06
2023-02-14T23:31:30.711Z,102316.00
2023-02-14T23:33:57.316Z,102325.56
2023-02-14T23:36:25.324Z,102318.69
2023-02-14T23:38:51.884Z,102304.16
2023-02-14T23:41:18.496Z,102313.59
2023-02-14T23:43:45.013Z,102313.56
2023-02-14T23:46:11.591Z,102316.06
2023-02-14T23:48:38.255Z,102305.88
2023-02-14T23:51:04.901Z,102309.19
2023-02-14T23:53:32.990Z,102307.44
2023-02-14T23:56:03.258Z,102298.00
2023-02-14T23:58:29.882Z,102310.09
